createdAt,value
2022-11-16T00:01:45.261Z,5.70
2022-11-16T00:04:12.484Z,5.07
2022-11-16T00:06:40.028Z,4.90
2022-11-16T00:09:22.335Z,4.65
2022-11-16T00:11:56.604Z,4.73
2022-11-16T00:14:26.432Z,5.10
2022-11-16T00:16:53.213Z,3.90
2022-11-16T00:19:20.221Z,4.15
2022-11-16T00:21:47.160Z,4.00
2022-11-16T00:24:16.261Z,4.03
2022-11-16T00:26:43.784Z,4.32
2022-11-16T00:29:21.209Z,3.50
2022-11-16T00:31:48.472Z,4.43
2022-11-16T00:34:16.181Z,4.72
2022-11-16T00:36:43.433Z,4.93
2022-11-16T00:39:17.629Z,4.35
2022-11-16T00:41:45.078Z,4.00
2022-11-16T00:44:12.360Z,4.10
2022-11-16T00:46:40.057Z,4.63
2022-11-16T00:49:07.078Z,4.70
2022-11-16T00:51:36.122Z,4.05
2022-11-16T00:54:03.993Z,4.68
2022-11-16T00:56:30.965Z,4.70
2022-11-16T00:58:57.712Z,4.30
2022-11-16T01:01:24.694Z,3.60
2022-11-16T01:03:51.862Z,3.92
2022-11-16T01:06:18.772Z,3.35
2022-11-16T01:08:45.827Z,4.03
2022-11-16T01:11:36.192Z,3.78
2022-11-16T01:14:06.776Z,3.97
2022-11-16T01:16:33.810Z,4.03
2022-11-16T01:19:00.636Z,3.95
2022-11-16T01:21:27.918Z,4.28
2022-11-16T01:23:57.134Z,4.15
2022-11-16T01:26:25.124Z,4.57
2022-11-16T01:28:52.497Z,4.03
2022-11-16T01:31:19.589Z,3.85
2022-11-16T01:33:46.350Z,4.57
2022-11-16T01:36:15.094Z,4.45
2022-11-16T01:38:46.972Z,3.53
2022-11-16T01:41:24.001Z,3.75
2022-11-16T01:43:59.996Z,4.60
2022-11-16T01:46:28.376Z,3.63
2022-11-16T01:49:12.487Z,3.08
2022-11-16T01:51:42.969Z,3.38
2022-11-16T01:54:13.258Z,3.55
2022-11-16T01:56:44.721Z,3.78
2022-11-16T01:59:13.546Z,3.70
2022-11-16T02:01:40.897Z,4.07
2022-11-16T02:04:11.400Z,3.50
2022-11-16T02:06:49.312Z,4.05
2022-11-16T02:09:58.415Z,3.58
2022-11-16T02:12:52.501Z,3.83
2022-11-16T02:15:42.733Z,3.70
2022-11-16T02:18:41.423Z,3.88
2022-11-16T02:21:29.618Z,3.28
2022-11-16T02:24:43.257Z,3.92
2022-11-16T02:27:34.349Z,4.35
2022-11-16T02:30:03.392Z,3.28
2022-11-16T02:32:37.358Z,4.10
2022-11-16T02:35:19.280Z,3.75
2022-11-16T02:37:54.640Z,3.55
2022-11-16T02:40:24.298Z,4.13
2022-11-16T02:43:10.198Z,4.25
2022-11-16T02:45:45.997Z,4.00
2022-11-16T02:48:20.417Z,4.53
2022-11-16T02:50:49.068Z,3.00
2022-11-16T02:53:15.963Z,3.78
2022-11-16T02:55:42.709Z,3.25
2022-11-16T02:58:14.986Z,4.03
2022-11-16T03:00:54.915Z,3.97
2022-11-16T03:03:24.512Z,3.55
2022-11-16T03:05:58.598Z,3.08
2022-11-16T03:08:31.679Z,2.28
2022-11-16T03:11:22.996Z,2.25
2022-11-16T03:13:51.256Z,2.67
2022-11-16T03:16:28.552Z,3.15
2022-11-16T03:18:58.386Z,3.13
2022-11-16T03:21:37.458Z,3.65
2022-11-16T03:24:05.252Z,3.15
2022-11-16T03:26:49.756Z,2.92
2022-11-16T03:29:31.109Z,3.85
2022-11-16T03:32:12.953Z,3.20
2022-11-16T03:34:49.956Z,3.58
2022-11-16T03:37:16.849Z,3.60
2022-11-16T03:39:44.862Z,4.22
2022-11-16T03:42:16.688Z,3.80
2022-11-16T03:44:46.777Z,4.28
2022-11-16T03:47:13.919Z,5.22
2022-11-16T03:49:45.678Z,3.85
2022-11-16T03:52:17.609Z,4.35
2022-11-16T03:54:44.846Z,4.43
2022-11-16T03:57:15.714Z,4.20
2022-11-16T03:59:46.008Z,3.83
2022-11-16T04:02:13.449Z,4.28
2022-11-16T04:04:58.921Z,4.05
2022-11-16T04:07:45.108Z,4.35
2022-11-16T04:10:30.923Z,4.40
2022-11-16T04:13:17.233Z,3.83
2022-11-16T04:16:02.618Z,4.18
2022-11-16T04:18:48.214Z,4.80
2022-11-16T04:21:56.771Z,3.85
2022-11-16T04:24:27.442Z,4.28
2022-11-16T04:27:23.049Z,4.53
2022-11-16T04:29:49.945Z,3.38
2022-11-16T04:32:35.680Z,4.75
2022-11-16T04:35:21.041Z,3.03
2022-11-16T04:37:50.497Z,3.45
2022-11-16T04:40:22.040Z,2.75
2022-11-16T04:42:54.291Z,3.75
2022-11-16T04:45:40.150Z,4.93
2022-11-16T04:48:07.535Z,4.05
2022-11-16T04:50:34.759Z,3.15
2022-11-16T04:53:01.691Z,3.45
2022-11-16T04:55:28.456Z,2.65
2022-11-16T04:57:55.619Z,3.42
2022-11-16T05:00:22.871Z,5.50
2022-11-16T05:02:49.725Z,5.70
2022-11-16T05:05:16.849Z,3.60
2022-11-16T05:07:44.016Z,4.05
2022-11-16T05:10:11.781Z,3.47
2022-11-16T05:12:39.031Z,3.22
2022-11-16T05:15:07.280Z,2.90
2022-11-16T05:17:34.368Z,2.53
2022-11-16T05:20:19.888Z,2.67
2022-11-16T05:22:56.539Z,2.20
2022-11-16T05:25:23.302Z,2.53
2022-11-16T05:27:50.102Z,2.78
2022-11-16T05:30:17.213Z,3.17
2022-11-16T05:32:44.165Z,3.10
2022-11-16T05:35:10.919Z,2.72
2022-11-16T05:37:37.684Z,2.70
2022-11-16T05:40:05.431Z,2.67
2022-11-16T05:42:32.195Z,3.15
2022-11-16T05:44:58.900Z,2.75
2022-11-16T05:47:25.684Z,2.75
2022-11-16T05:49:52.375Z,2.67
2022-11-16T05:52:19.149Z,2.00
2022-11-16T05:54:45.881Z,2.05
2022-11-16T05:57:12.611Z,2.10
2022-11-16T05:59:39.341Z,1.92
2022-11-16T06:02:06.063Z,2.75
2022-11-16T06:04:33.516Z,2.30
2022-11-16T06:07:00.293Z,2.47
2022-11-16T06:09:27.088Z,2.28
2022-11-16T06:11:53.789Z,2.33
2022-11-16T06:14:20.543Z,2.10
2022-11-16T06:16:47.293Z,2.30
2022-11-16T06:19:13.991Z,2.50
2022-11-16T06:21:40.808Z,3.60
2022-11-16T06:24:09.536Z,2.42
2022-11-16T06:26:37.143Z,3.63
2022-11-16T06:29:04.865Z,2.35
2022-11-16T06:31:32.060Z,3.85
2022-11-16T06:33:58.777Z,4.15
2022-11-16T06:36:26.552Z,3.70
2022-11-16T06:38:53.312Z,3.58
2022-11-16T06:41:20.253Z,3.53
2022-11-16T06:43:46.932Z,2.90
2022-11-16T06:46:13.832Z,3.03
2022-11-16T06:48:40.676Z,2.72
2022-11-16T06:51:07.466Z,2.90
2022-11-16T06:53:34.305Z,2.58
2022-11-16T06:56:06.212Z,2.22
2022-11-16T06:58:33.885Z,2.58
2022-11-16T07:01:08.744Z,2.53
2022-11-16T07:03:35.657Z,3.17
2022-11-16T07:06:11.666Z,3.35
2022-11-16T07:08:39.083Z,3.35
2022-11-16T07:11:09.697Z,3.13
2022-11-16T07:13:38.679Z,2.47
2022-11-16T07:16:07.787Z,2.53
2022-11-16T07:18:37.041Z,2.70
2022-11-16T07:21:13.749Z,2.95
2022-11-16T07:23:41.293Z,3.03
2022-11-16T07:26:10.422Z,3.70
2022-11-16T07:28:38.351Z,3.22
2022-11-16T07:31:14.502Z,3.40
2022-11-16T07:33:41.343Z,3.53
2022-11-16T07:36:18.665Z,4.70
2022-11-16T07:38:45.525Z,3.38
2022-11-16T07:41:16.767Z,3.83
2022-11-16T07:43:47.230Z,5.50
2022-11-16T07:46:51.394Z,5.15
2022-11-16T07:49:13.376Z,5.00
2022-11-16T07:51:40.114Z,6.75
2022-11-16T07:54:06.879Z,8.48
2022-11-16T07:56:33.876Z,6.90
2022-11-16T07:59:01.619Z,5.88
2022-11-16T08:01:28.403Z,5.60
2022-11-16T08:03:55.236Z,5.35
2022-11-16T08:06:25.852Z,6.20
2022-11-16T08:08:58.004Z,6.35
2022-11-16T08:11:26.067Z,43.25
2022-11-16T08:13:52.840Z,56.20
2022-11-16T08:16:22.426Z,72.95
2022-11-16T08:18:49.351Z,95.82
2022-11-16T08:21:18.531Z,73.55
2022-11-16T08:23:46.160Z,41.60
2022-11-16T08:26:16.348Z,18.55
2022-11-16T08:28:46.167Z,7.82
2022-11-16T08:31:21.099Z,7.70
2022-11-16T08:33:51.968Z,8.05
2022-11-16T08:36:19.188Z,9.35
2022-11-16T08:38:48.596Z,11.65
2022-11-16T08:41:17.114Z,11.35
2022-11-16T08:43:47.117Z,11.40
2022-11-16T08:46:14.924Z,10.30
2022-11-16T08:48:42.041Z,10.73
2022-11-16T08:51:20.828Z,11.40
2022-11-16T08:53:49.516Z,10.63
2022-11-16T08:56:18.589Z,9.63
2022-11-16T08:58:52.517Z,10.23
2022-11-16T09:01:25.502Z,6.30
2022-11-16T09:03:53.307Z,7.13
2022-11-16T09:06:20.752Z,6.65
2022-11-16T09:08:47.946Z,5.93
2022-11-16T09:11:18.812Z,4.20
2022-11-16T09:13:47.677Z,4.57
2022-11-16T09:16:17.601Z,4.68
2022-11-16T09:18:48.356Z,4.18
2022-11-16T09:21:27.424Z,4.35
2022-11-16T09:23:55.749Z,4.95
2022-11-16T09:26:23.981Z,4.13
2022-11-16T09:29:13.373Z,4.18
2022-11-16T09:31:40.637Z,3.70
2022-11-16T09:34:07.966Z,4.75
2022-11-16T09:36:35.371Z,3.58
2022-11-16T09:39:28.935Z,4.53
2022-11-16T09:42:44.979Z,4.25
2022-11-16T09:45:25.388Z,3.40
2022-11-16T09:47:57.717Z,5.78
2022-11-16T09:50:42.806Z,2.92
2022-11-16T09:53:44.516Z,2.80
2022-11-16T09:56:22.382Z,3.28
2022-11-16T09:59:18.410Z,3.80
2022-11-16T10:01:53.005Z,5.30
2022-11-16T10:04:58.834Z,6.15
2022-11-16T10:07:41.988Z,5.85
2022-11-16T10:10:25.797Z,3.55
2022-11-16T10:13:10.588Z,2.67
2022-11-16T10:15:53.865Z,2.75
2022-11-16T10:21:44.027Z,1.92
2022-11-16T10:24:26.001Z,1.80
2022-11-16T10:27:19.262Z,2.10
2022-11-16T10:30:02.117Z,4.07
2022-11-16T10:32:44.971Z,2.40
2022-11-16T10:35:11.891Z,2.28
2022-11-16T10:37:45.828Z,2.95
2022-11-16T10:40:29.228Z,2.33
2022-11-16T10:43:16.038Z,1.40
2022-11-16T10:46:19.809Z,0.95
2022-11-16T10:51:34.894Z,1.20
2022-11-16T10:54:01.729Z,1.17
2022-11-16T10:56:32.551Z,0.50
2022-11-16T10:59:08.170Z,1.05
2022-11-16T11:01:43.567Z,0.80
2022-11-16T11:04:24.750Z,0.88
2022-11-16T11:07:23.770Z,3.08
2022-11-16T11:09:54.588Z,0.75
2022-11-16T11:12:40.573Z,0.45
2022-11-16T11:15:27.686Z,0.60
2022-11-16T11:18:16.044Z,0.60
2022-11-16T11:20:47.656Z,1.35
2022-11-16T11:23:19.209Z,1.67
2022-11-16T11:25:56.387Z,1.30
2022-11-16T11:28:38.461Z,1.42
2022-11-16T11:31:25.936Z,2.70
2022-11-16T11:33:59.949Z,0.93
2022-11-16T11:36:43.178Z,0.90
2022-11-16T11:41:45.018Z,0.30
2022-11-16T11:44:20.570Z,0.17
2022-11-16T11:49:52.337Z,0.22
2022-11-16T11:52:34.721Z,0.43
2022-11-16T11:55:03.493Z,0.43
2022-11-16T11:57:33.420Z,0.28
2022-11-16T12:00:02.117Z,0.30
2022-11-16T12:02:39.941Z,0.57
2022-11-16T12:05:51.461Z,0.50
2022-11-16T12:08:45.323Z,0.45
2022-11-16T12:11:22.100Z,0.35
2022-11-16T12:14:00.922Z,0.50
2022-11-16T12:16:39.463Z,0.60
2022-11-16T12:19:15.324Z,0.20
2022-11-16T12:22:13.379Z,0.40
2022-11-16T12:25:01.996Z,0.70
2022-11-16T12:28:08.787Z,0.60
2022-11-16T12:31:01.329Z,0.88
2022-11-16T12:33:53.112Z,0.28
2022-11-16T12:36:38.809Z,0.43
2022-11-16T12:40:10.645Z,0.73
2022-11-16T12:42:42.230Z,0.25
2022-11-16T12:45:18.529Z,0.45
2022-11-16T12:48:10.432Z,0.32
2022-11-16T12:51:31.858Z,1.95
2022-11-16T12:54:29.325Z,1.92
2022-11-16T12:57:32.843Z,1.25
2022-11-16T13:00:17.020Z,8.40
2022-11-16T13:03:13.692Z,4.05
2022-11-16T13:05:45.402Z,0.50
2022-11-16T13:08:57.680Z,5.95
2022-11-16T13:11:31.077Z,1.98
2022-11-16T13:14:05.971Z,0.70
2022-11-16T13:16:32.783Z,0.88
2022-11-16T13:19:04.328Z,0.80
2022-11-16T13:22:02.854Z,0.85
2022-11-16T13:24:38.331Z,0.43
2022-11-16T13:27:27.369Z,0.50
2022-11-16T13:30:09.032Z,0.98
2022-11-16T13:33:04.416Z,1.08
2022-11-16T13:35:31.464Z,0.70
2022-11-16T13:37:58.220Z,0.47
2022-11-16T13:40:31.783Z,2.50
2022-11-16T13:43:04.346Z,1.70
2022-11-16T13:45:40.667Z,1.33
2022-11-16T13:48:22.463Z,1.35
2022-11-16T13:51:03.534Z,0.55
2022-11-16T13:56:28.357Z,0.90
2022-11-16T13:58:57.397Z,1.30
2022-11-16T14:01:24.317Z,5.10
2022-11-16T14:03:52.749Z,8.35
2022-11-16T14:06:19.401Z,2.88
2022-11-16T14:08:50.260Z,0.77
2022-11-16T14:11:36.090Z,0.50
2022-11-16T14:14:12.180Z,0.82
2022-11-16T14:16:47.567Z,0.85
2022-11-16T14:19:49.357Z,0.88
2022-11-16T14:22:34.651Z,1.90
2022-11-16T14:25:08.220Z,1.42
2022-11-16T14:27:55.633Z,1.77
2022-11-16T14:30:31.395Z,0.80
2022-11-16T14:32:58.878Z,1.40
2022-11-16T14:35:39.585Z,1.80
2022-11-16T14:38:30.899Z,1.42
2022-11-16T14:41:00.220Z,1.02
2022-11-16T14:43:39.707Z,1.67
2022-11-16T14:46:17.863Z,0.98
2022-11-16T14:48:46.359Z,0.98
2022-11-16T14:51:21.667Z,0.82
2022-11-16T14:53:53.905Z,1.20
2022-11-16T14:56:20.907Z,1.83
2022-11-16T14:58:56.725Z,2.28
2022-11-16T15:01:31.865Z,2.88
2022-11-16T15:04:09.403Z,7.13
2022-11-16T15:06:44.780Z,9.70
2022-11-16T15:09:34.354Z,5.82
2022-11-16T15:12:22.904Z,1.90
2022-11-16T15:14:58.034Z,2.97
2022-11-16T15:17:31.860Z,2.50
2022-11-16T15:20:11.063Z,3.20
2022-11-16T15:22:42.426Z,1.98
2022-11-16T15:25:41.274Z,1.15
2022-11-16T15:28:26.221Z,2.63
2022-11-16T15:30:59.017Z,0.85
2022-11-16T15:33:38.656Z,0.70
2022-11-16T15:36:39.132Z,0.80
2022-11-16T15:39:12.618Z,1.50
2022-11-16T15:41:40.041Z,1.05
2022-11-16T15:44:14.651Z,2.40
2022-11-16T15:46:45.370Z,3.10
2022-11-16T15:49:29.217Z,2.38
2022-11-16T15:51:58.707Z,3.63
2022-11-16T15:54:51.501Z,4.25
2022-11-16T15:57:20.355Z,4.78
2022-11-16T15:59:55.613Z,4.28
2022-11-16T16:02:27.761Z,2.65
2022-11-16T16:04:54.510Z,3.40
2022-11-16T16:07:42.473Z,3.63
2022-11-16T16:10:23.532Z,8.18
2022-11-16T16:12:57.956Z,4.45
2022-11-16T16:15:34.285Z,2.63
2022-11-16T16:18:03.513Z,3.28
2022-11-16T16:20:32.275Z,5.15
2022-11-16T16:23:11.863Z,5.47
2022-11-16T16:25:38.643Z,3.50
2022-11-16T16:28:05.447Z,2.30
2022-11-16T16:30:34.726Z,3.00
2022-11-16T16:33:02.351Z,3.10
2022-11-16T16:35:29.284Z,2.22
2022-11-16T16:38:01.385Z,1.02
2022-11-16T16:40:29.305Z,2.07
2022-11-16T16:42:56.988Z,1.98
2022-11-16T16:45:34.719Z,2.85
2022-11-16T16:48:01.445Z,3.53
2022-11-16T16:50:29.003Z,3.15
2022-11-16T16:52:55.740Z,3.42
2022-11-16T16:55:22.453Z,2.95
2022-11-16T16:57:49.201Z,2.78
2022-11-16T17:00:16.857Z,2.47
2022-11-16T17:02:43.828Z,2.30
2022-11-16T17:05:10.632Z,1.23
2022-11-16T17:07:37.422Z,1.80
2022-11-16T17:10:04.722Z,1.83
2022-11-16T17:12:31.432Z,2.15
2022-11-16T17:14:58.297Z,2.05
2022-11-16T17:17:25.072Z,2.55
2022-11-16T17:19:52.427Z,1.88
2022-11-16T17:22:20.998Z,1.75
2022-11-16T17:24:47.811Z,3.83
2022-11-16T17:27:14.549Z,5.25
2022-11-16T17:29:41.279Z,4.82
2022-11-16T17:32:08.163Z,6.50
2022-11-16T17:34:34.882Z,5.38
2022-11-16T17:37:01.694Z,4.88
2022-11-16T17:39:28.439Z,2.50
2022-11-16T17:41:55.333Z,2.42
2022-11-16T17:44:22.452Z,2.45
2022-11-16T17:46:49.760Z,2.33
2022-11-16T17:49:16.536Z,1.90
2022-11-16T17:51:43.231Z,1.77
2022-11-16T17:54:10.043Z,1.45
2022-11-16T17:56:36.810Z,1.40
2022-11-16T17:59:03.864Z,2.60
2022-11-16T18:01:31.546Z,6.00
2022-11-16T18:04:01.132Z,16.65
2022-11-16T18:06:27.885Z,2.15
2022-11-16T18:08:54.775Z,1.15
2022-11-16T18:11:24.971Z,0.90
2022-11-16T18:13:57.944Z,1.58
2022-11-16T18:19:06.009Z,1.80
2022-11-16T18:21:39.664Z,0.95
2022-11-16T18:24:07.334Z,1.08
2022-11-16T18:26:34.160Z,1.35
2022-11-16T18:29:00.923Z,2.00
2022-11-16T18:31:27.679Z,2.15
2022-11-16T18:33:54.412Z,2.47
2022-11-16T18:36:22.866Z,4.18
2022-11-16T18:38:49.935Z,2.72
2022-11-16T18:41:19.610Z,1.38
2022-11-16T18:43:56.045Z,1.05
2022-11-16T18:46:31.027Z,1.50
2022-11-16T18:48:58.510Z,0.77
2022-11-16T18:51:27.664Z,0.77
2022-11-16T18:53:55.439Z,0.75
2022-11-16T18:56:22.979Z,1.15
2022-11-16T18:58:51.224Z,0.93
2022-11-16T19:01:22.355Z,1.05
2022-11-16T19:03:49.607Z,0.85
2022-11-16T19:06:18.014Z,0.60
2022-11-16T19:08:50.493Z,0.85
2022-11-16T19:11:20.722Z,1.00
2022-11-16T19:13:54.437Z,1.08
2022-11-16T19:16:22.064Z,0.70
2022-11-16T19:18:48.905Z,0.80
2022-11-16T19:21:18.767Z,1.02
2022-11-16T19:23:48.486Z,3.92
2022-11-16T19:26:18.752Z,1.30
2022-11-16T19:28:48.176Z,1.08
2022-11-16T19:31:20.264Z,0.73
2022-11-16T19:33:47.436Z,1.23
2022-11-16T19:36:17.401Z,1.17
2022-11-16T19:38:47.416Z,0.80
2022-11-16T19:41:16.632Z,1.38
2022-11-16T19:43:43.542Z,1.40
2022-11-16T19:46:16.603Z,9.00
2022-11-16T19:48:45.845Z,3.70
2022-11-16T19:51:19.461Z,1.20
2022-11-16T19:53:46.569Z,2.05
2022-11-16T19:56:16.361Z,1.08
2022-11-16T19:58:43.584Z,2.30
2022-11-16T20:01:17.556Z,1.33
2022-11-16T20:03:45.973Z,1.70
2022-11-16T20:06:22.577Z,7.55
2022-11-16T20:09:00.494Z,2.85
2022-11-16T20:11:33.780Z,1.58
2022-11-16T20:14:01.941Z,1.85
2022-11-16T20:16:38.362Z,1.15
2022-11-16T20:19:10.448Z,2.92
2022-11-16T20:21:42.215Z,2.03
2022-11-16T20:24:14.767Z,1.50
2022-11-16T20:26:45.060Z,1.30
2022-11-16T20:29:16.560Z,1.63
2022-11-16T20:31:45.421Z,2.13
2022-11-16T20:34:17.186Z,3.08
2022-11-16T20:36:46.833Z,2.70
2022-11-16T20:39:19.167Z,2.60
2022-11-16T20:41:46.907Z,3.83
2022-11-16T20:44:22.345Z,2.58
2022-11-16T20:46:52.267Z,2.60
2022-11-16T20:49:19.096Z,2.72
2022-11-16T20:51:47.738Z,2.20
2022-11-16T20:54:14.779Z,1.98
2022-11-16T20:56:41.589Z,2.40
2022-11-16T20:59:08.306Z,1.55
2022-11-16T21:01:35.191Z,1.10
2022-11-16T21:04:04.918Z,1.90
2022-11-16T21:06:32.839Z,1.77
2022-11-16T21:09:00.380Z,1.92
2022-11-16T21:11:30.642Z,1.73
2022-11-16T21:14:16.079Z,1.73
2022-11-16T21:16:43.465Z,1.80
2022-11-16T21:19:11.549Z,1.83
2022-11-16T21:21:40.494Z,2.50
2022-11-16T21:24:09.119Z,2.00
2022-11-16T21:26:37.367Z,2.10
2022-11-16T21:29:04.751Z,2.17
2022-11-16T21:31:34.968Z,2.50
2022-11-16T21:34:02.498Z,1.95
2022-11-16T21:36:31.819Z,2.78
2022-11-16T21:38:58.715Z,3.30
2022-11-16T21:41:26.632Z,2.47
2022-11-16T21:43:53.685Z,3.20
2022-11-16T21:46:24.956Z,2.63
2022-11-16T21:48:53.863Z,3.38
2022-11-16T21:51:22.871Z,3.17
2022-11-16T21:53:49.631Z,2.83
2022-11-16T21:56:19.361Z,3.28
2022-11-16T21:58:46.684Z,2.80
2022-11-16T22:01:16.282Z,2.90
2022-11-16T22:03:43.343Z,2.67
2022-11-16T22:06:33.296Z,3.28
2022-11-16T22:09:00.676Z,2.40
2022-11-16T22:11:27.540Z,2.45
2022-11-16T22:13:54.245Z,2.35
2022-11-16T22:16:23.454Z,2.25
2022-11-16T22:18:50.756Z,2.38
2022-11-16T22:21:17.600Z,3.60
2022-11-16T22:23:44.399Z,2.28
2022-11-16T22:26:14.662Z,2.17
2022-11-16T22:28:41.641Z,2.92
2022-11-16T22:31:14.726Z,2.63
2022-11-16T22:33:42.065Z,2.88
2022-11-16T22:36:13.393Z,2.88
2022-11-16T22:38:40.164Z,2.30
2022-11-16T22:41:06.908Z,2.95
2022-11-16T22:43:34.327Z,2.78
2022-11-16T22:46:04.545Z,3.30
2022-11-16T22:48:38.203Z,3.05
2022-11-16T22:51:20.573Z,3.67
2022-11-16T22:53:47.340Z,3.08
2022-11-16T22:56:14.381Z,3.15
2022-11-16T22:58:41.174Z,3.70
2022-11-16T23:01:09.380Z,4.13
2022-11-16T23:03:37.562Z,3.45
2022-11-16T23:06:06.156Z,2.72
2022-11-16T23:08:34.072Z,2.28
2022-11-16T23:11:25.453Z,3.10
2022-11-16T23:14:12.992Z,3.60
2022-11-16T23:16:41.164Z,2.85
2022-11-16T23:19:33.046Z,2.80
2022-11-16T23:22:18.266Z,3.70
2022-11-16T23:25:04.393Z,2.72
2022-11-16T23:27:49.045Z,2.65
2022-11-16T23:30:16.084Z,3.42
2022-11-16T23:32:42.964Z,2.22
2022-11-16T23:35:10.481Z,3.38
2022-11-16T23:38:06.217Z,3.10
2022-11-16T23:40:40.334Z,3.75
2022-11-16T23:43:28.951Z,2.35
2022-11-16T23:45:55.763Z,2.28
2022-11-16T23:48:22.530Z,3.65
2022-11-16T23:50:49.248Z,3.03
2022-11-16T23:53:15.994Z,3.50
2022-11-16T23:55:42.765Z,3.35
2022-11-16T23:58:14.642Z,3.35
